Language: 


Des rapports , des résumés tant et plus, au choix de chacun....


Données Historiques de Météogheer
Journalier Rapport pour Mars 3, 2018 Unitée:  Les deux    Impériale   Métrique
Suivant Jour »
Journalier Hebdomadaire Mensuel Annuel Sur mesure
  Max: Min: Moyenne:
Température: 49.1 °F /  9.5 °C 24.8 °F /  -4.0 °C 35.8 °F /  2.1 °C
Point de rosée: 37.4 °F /  3.0 °C 23 °F /  -5.0 °C 31.1 °F /  -0.5 °C
Humidité: 98% 0% 84%
Vent: 8.7mph /  14.0km/h - 2.7mph /  4.3km/h
Rafales: 8.7mph /  14.0km/h - -
Vent- - East
Pression: 29.4 in /  994.1 hPa 0 in /  0.0 hPa -
Pluie: 0 in /  0.0 mm    
Historical Graphs
 
 
Données tabulaires pour Mars 3, 2018
Heure Température Point de rosée Pression Vent Vent Rafales Humidité Pluie Taux (Horaire) Conditions
00:04 31.3 °F /  -0.4 °C 28.4 °F /  -2.0 °C 29.3in /  993.1hPa Calm     91% 0in /  0.0mm
00:09 31.3 °F /  -0.4 °C 28.4 °F /  -2.0 °C 29.3in /  993.1hPa Calm     91% 0in /  0.0mm
00:14 31.3 °F /  -0.4 °C 28.4 °F /  -2.0 °C 29.3in /  993.1hPa Calm     91% 0in /  0.0mm
00:19 31.1 °F /  -0.5 °C 26.6 °F /  -3.0 °C 29.3in /  993.1hPa ENE 3.1mph /  5.0km/h 3.4mph /  5.5km/h 91% 0in /  0.0mm
00:24 31.1 °F /  -0.5 °C 26.6 °F /  -3.0 °C 29.3in /  993.1hPa Calm   3.6mph /  5.8km/h 91% 0in /  0.0mm
00:29 30.9 °F /  -0.6 °C 26.6 °F /  -3.0 °C 29.3in /  992.1hPa Calm   3.6mph /  5.8km/h 91% 0in /  0.0mm
00:35 30.9 °F /  -0.6 °C 26.6 °F /  -3.0 °C 29.3in /  992.1hPa Calm   1.1mph /  1.8km/h 91% 0in /  0.0mm
00:40 30.9 °F /  -0.6 °C 26.6 °F /  -3.0 °C 29.3in /  992.1hPa Calm   3.8mph /  6.1km/h 91% 0in /  0.0mm
00:45 30.9 °F /  -0.6 °C 26.6 °F /  -3.0 °C 29.3in /  993.1hPa Calm   3.8mph /  6.1km/h 91% 0in /  0.0mm
00:50 30.9 °F /  -0.6 °C 26.6 °F /  -3.0 °C 29.3in /  993.1hPa Calm   2.9mph /  4.7km/h 91% 0in /  0.0mm
00:55 30.9 °F /  -0.6 °C 26.6 °F /  -3.0 °C 29.3in /  993.1hPa Calm   2mph /  3.2km/h 92% 0in /  0.0mm
01:00 30.9 °F /  -0.6 °C 26.6 °F /  -3.0 °C 29.3in /  993.1hPa NE 3.4mph /  5.5km/h 3.6mph /  5.8km/h 92% 0in /  0.0mm
01:05 30.9 °F /  -0.6 °C 26.6 °F /  -3.0 °C 29.3in /  993.1hPa NE 3.6mph /  5.8km/h 4.3mph /  6.9km/h 92% 0in /  0.0mm
01:10 30.9 °F /  -0.6 °C 26.6 °F /  -3.0 °C 29.3in /  993.1hPa NE 4mph /  6.4km/h 4.3mph /  6.9km/h 92% 0in /  0.0mm
01:15 30.9 °F /  -0.6 °C 28.4 °F /  -2.0 °C 29.3in /  993.1hPa Calm   5.8mph /  9.3km/h 93% 0in /  0.0mm
01:20 30.9 °F /  -0.6 °C 28.4 °F /  -2.0 °C 29.3in /  993.1hPa Calm   5.8mph /  9.3km/h 93% 0in /  0.0mm
01:25 30.9 °F /  -0.6 °C 28.4 °F /  -2.0 °C 29.3in /  993.1hPa Calm   3.8mph /  6.1km/h 93% 0in /  0.0mm
01:30 31.1 °F /  -0.5 °C 28.4 °F /  -2.0 °C 29.3in /  992.1hPa Calm   4.3mph /  6.9km/h 93% 0in /  0.0mm
01:35 31.1 °F /  -0.5 °C 28.4 °F /  -2.0 °C 29.3in /  992.1hPa ENE 2.9mph /  4.7km/h 4.3mph /  6.9km/h 94% 0in /  0.0mm
01:40 31.1 °F /  -0.5 °C 28.4 °F /  -2.0 °C 29.3in /  992.1hPa Calm   3.1mph /  5.0km/h 94% 0in /  0.0mm
01:45 31.1 °F /  -0.5 °C 28.4 °F /  -2.0 °C 29.3in /  992.1hPa Calm   4mph /  6.4km/h 94% 0in /  0.0mm
01:50 31.1 °F /  -0.5 °C 28.4 °F /  -2.0 °C 29.3in /  992.1hPa Calm   4mph /  6.4km/h 94% 0in /  0.0mm
01:55 31.1 °F /  -0.5 °C 28.4 °F /  -2.0 °C 29.3in /  992.1hPa Calm   3.6mph /  5.8km/h 94% 0in /  0.0mm
02:01 31.1 °F /  -0.5 °C 28.4 °F /  -2.0 °C 29.3in /  992.1hPa Calm   3.8mph /  6.1km/h 94% 0in /  0.0mm
02:06 30.9 °F /  -0.6 °C 28.4 °F /  -2.0 °C 29.3in /  992.1hPa Calm   3.8mph /  6.1km/h 94% 0in /  0.0mm
02:11 30.9 °F /  -0.6 °C 28.4 °F /  -2.0 °C 29.3in /  992.1hPa Calm   2.7mph /  4.3km/h 94% 0in /  0.0mm
02:16 30.7 °F /  -0.7 °C 28.4 °F /  -2.0 °C 29.3in /  993.1hPa Calm   2.9mph /  4.7km/h 94% 0in /  0.0mm
02:21 30.7 °F /  -0.7 °C 28.4 °F /  -2.0 °C 29.3in /  993.1hPa NE 4mph /  6.4km/h 4mph /  6.4km/h 94% 0in /  0.0mm
02:26 30.6 °F /  -0.8 °C 26.6 °F /  -3.0 °C 29.3in /  993.1hPa Calm   4mph /  6.4km/h 94% 0in /  0.0mm
02:31 30.4 °F /  -0.9 °C 26.6 °F /  -3.0 °C 29.3in /  993.1hPa Calm   4mph /  6.4km/h 94% 0in /  0.0mm
02:36 30.2 °F /  -1.0 °C 26.6 °F /  -3.0 °C 29.3in /  993.1hPa NE 4mph /  6.4km/h 4mph /  6.4km/h 94% 0in /  0.0mm
02:41 30 °F /  -1.1 °C 26.6 °F /  -3.0 °C 29.3in /  993.1hPa NE 3.8mph /  6.1km/h 4mph /  6.4km/h 94% 0in /  0.0mm
02:46 30 °F /  -1.1 °C 26.6 °F /  -3.0 °C 29.3in /  993.1hPa Calm   4mph /  6.4km/h 94% 0in /  0.0mm
02:51 29.7 °F /  -1.3 °C 26.6 °F /  -3.0 °C 29.3in /  993.1hPa NE 4mph /  6.4km/h 4mph /  6.4km/h 94% 0in /  0.0mm
02:56 29.5 °F /  -1.4 °C 26.6 °F /  -3.0 °C 29.3in /  993.1hPa Calm   4.9mph /  7.9km/h 94% 0in /  0.0mm
03:01 29.5 °F /  -1.4 °C 26.6 °F /  -3.0 °C 29.3in /  993.1hPa Calm   4.9mph /  7.9km/h 94% 0in /  0.0mm
03:06 29.3 °F /  -1.5 °C 26.6 °F /  -3.0 °C 29.3in /  993.1hPa Calm   2mph /  3.2km/h 94% 0in /  0.0mm
03:11 29.3 °F /  -1.5 °C 26.6 °F /  -3.0 °C 29.3in /  993.1hPa Calm   3.1mph /  5.0km/h 94% 0in /  0.0mm
03:16 29.3 °F /  -1.5 °C 26.6 °F /  -3.0 °C 29.3in /  993.1hPa Calm   3.1mph /  5.0km/h 94% 0in /  0.0mm
03:21 29.3 °F /  -1.5 °C 26.6 °F /  -3.0 °C 29.3in /  993.1hPa Calm   1.6mph /  2.6km/h 94% 0in /  0.0mm
03:26 29.3 °F /  -1.5 °C 26.6 °F /  -3.0 °C 29.3in /  993.1hPa NE 3.8mph /  6.1km/h 4.3mph /  6.9km/h 94% 0in /  0.0mm
03:31 29.3 °F /  -1.5 °C 26.6 °F /  -3.0 °C 29.3in /  993.1hPa Calm   4.9mph /  7.9km/h 95% 0in /  0.0mm
03:36 29.1 °F /  -1.6 °C 26.6 °F /  -3.0 °C 29.3in /  993.1hPa Calm   4.9mph /  7.9km/h 95% 0in /  0.0mm
03:41 29.1 °F /  -1.6 °C 26.6 °F /  -3.0 °C 29.3in /  993.1hPa Calm   3.4mph /  5.5km/h 95% 0in /  0.0mm
03:46 29.1 °F /  -1.6 °C 26.6 °F /  -3.0 °C 29.3in /  993.1hPa Calm   1.3mph /  2.1km/h 95% 0in /  0.0mm
03:51 28.9 °F /  -1.7 °C 26.6 °F /  -3.0 °C 29.3in /  993.1hPa Calm     95% 0in /  0.0mm
03:56 29.1 °F /  -1.6 °C 26.6 °F /  -3.0 °C 29.3in /  993.1hPa Calm     95% 0in /  0.0mm
04:01 29.1 °F /  -1.6 °C 26.6 °F /  -3.0 °C 29.3in /  992.1hPa Calm   3.1mph /  5.0km/h 95% 0in /  0.0mm
04:06 29.1 °F /  -1.6 °C 26.6 °F /  -3.0 °C 29.3in /  992.1hPa Calm   3.1mph /  5.0km/h 95% 0in /  0.0mm
04:11 28.9 °F /  -1.7 °C 26.6 °F /  -3.0 °C 29.3in /  992.1hPa Calm     94% 0in /  0.0mm
04:16 28.9 °F /  -1.7 °C 26.6 °F /  -3.0 °C 29.3in /  992.1hPa Calm     94% 0in /  0.0mm
04:21 28.9 °F /  -1.7 °C 26.6 °F /  -3.0 °C 29.3in /  992.1hPa Calm   3.4mph /  5.5km/h 94% 0in /  0.0mm
04:26 28.8 °F /  -1.8 °C 26.6 °F /  -3.0 °C 29.3in /  992.1hPa Calm   3.8mph /  6.1km/h 94% 0in /  0.0mm
04:31 28.8 °F /  -1.8 °C 26.6 °F /  -3.0 °C 29.3in /  992.1hPa Calm   5.4mph /  8.7km/h 94% 0in /  0.0mm
04:36 28.8 °F /  -1.8 °C 26.6 °F /  -3.0 °C 29.3in /  992.1hPa NE 5.4mph /  8.7km/h 5.6mph /  9.0km/h 95% 0in /  0.0mm
04:41 28.8 °F /  -1.8 °C 26.6 °F /  -3.0 °C 29.3in /  992.1hPa NNE 3.1mph /  5.0km/h 5.6mph /  9.0km/h 95% 0in /  0.0mm
04:46 28.6 °F /  -1.9 °C 26.6 °F /  -3.0 °C 29.3in /  991.1hPa NE 3.4mph /  5.5km/h 5.4mph /  8.7km/h 95% 0in /  0.0mm
04:51 28.4 °F /  -2.0 °C 26.6 °F /  -3.0 °C 29.3in /  991.1hPa NE 3.1mph /  5.0km/h 4.5mph /  7.2km/h 95% 0in /  0.0mm
04:57 28.2 °F /  -2.1 °C 26.6 °F /  -3.0 °C 29.3in /  991.1hPa Calm   3.8mph /  6.1km/h 95% 0in /  0.0mm
05:02 27.9 °F /  -2.3 °C 24.8 °F /  -4.0 °C 29.3in /  991.1hPa NNE 3.6mph /  5.8km/h 3.6mph /  5.8km/h 95% 0in /  0.0mm
05:07 27.3 °F /  -2.6 °C 24.8 °F /  -4.0 °C 29.3in /  991.1hPa Calm   3.8mph /  6.1km/h 94% 0in /  0.0mm
05:12 27 °F /  -2.8 °C 23 °F /  -5.0 °C 29.3in /  991.1hPa Calm   3.8mph /  6.1km/h 93% 0in /  0.0mm
05:17 26.8 °F /  -2.9 °C 23 °F /  -5.0 °C 29.3in /  991.1hPa NNE 3.8mph /  6.1km/h 4mph /  6.4km/h 93% 0in /  0.0mm
05:22 26.6 °F /  -3.0 °C 23 °F /  -5.0 °C 29.3in /  991.1hPa North 2.7mph /  4.3km/h 4mph /  6.4km/h 94% 0in /  0.0mm
05:27 26.2 °F /  -3.2 °C 23 °F /  -5.0 °C 29.3in /  991.1hPa NNE 2.5mph /  4.0km/h 4mph /  6.4km/h 94% 0in /  0.0mm
05:32 25.9 °F /  -3.4 °C 23 °F /  -5.0 °C 29.3in /  991.1hPa Calm   4.3mph /  6.9km/h 93% 0in /  0.0mm
05:37 25.7 °F /  -3.5 °C 23 °F /  -5.0 °C 29.3in /  991.1hPa Calm   4.3mph /  6.9km/h 93% 0in /  0.0mm
05:42 25.5 °F /  -3.6 °C 23 °F /  -5.0 °C 29.3in /  991.1hPa NE 4.3mph /  6.9km/h 4.5mph /  7.2km/h 93% 0in /  0.0mm
05:47 25.5 °F /  -3.6 °C 23 °F /  -5.0 °C 29.2in /  990.1hPa NNE 3.6mph /  5.8km/h 4.7mph /  7.6km/h 94% 0in /  0.0mm
05:52 25.5 °F /  -3.6 °C 23 °F /  -5.0 °C 29.2in /  990.1hPa Calm   4.9mph /  7.9km/h 94% 0in /  0.0mm
05:57 25.3 °F /  -3.7 °C 23 °F /  -5.0 °C 29.2in /  990.1hPa NNE 3.8mph /  6.1km/h 4.9mph /  7.9km/h 94% 0in /  0.0mm
06:02 25.3 °F /  -3.7 °C 23 °F /  -5.0 °C 29.3in /  991.1hPa NE 3.4mph /  5.5km/h 4.9mph /  7.9km/h 94% 0in /  0.0mm
06:07 25.3 °F /  -3.7 °C 23 °F /  -5.0 °C 29.3in /  991.1hPa NE 3.8mph /  6.1km/h 4.7mph /  7.6km/h 94% 0in /  0.0mm
06:08 25.3 °F /  -3.7 °C 23 °F /  -5.0 °C 29.3in /  991.1hPa NNE 2.5mph /  4.0km/h 4.7mph /  7.6km/h 94% 0in /  0.0mm
06:13 25.3 °F /  -3.7 °C 23 °F /  -5.0 °C 29.3in /  991.1hPa NE 3.8mph /  6.1km/h 4.7mph /  7.6km/h 94% 0in /  0.0mm
06:18 25.3 °F /  -3.7 °C 23 °F /  -5.0 °C 29.3in /  991.1hPa NE 3.8mph /  6.1km/h 4mph /  6.4km/h 94% 0in /  0.0mm
06:23 25.3 °F /  -3.7 °C 23 °F /  -5.0 °C 29.3in /  991.1hPa Calm   4.7mph /  7.6km/h 95% 0in /  0.0mm
06:28 25.3 °F /  -3.7 °C 23 °F /  -5.0 °C 29.3in /  991.1hPa Calm   4.7mph /  7.6km/h 95% 0in /  0.0mm
06:33 25.3 °F /  -3.7 °C 23 °F /  -5.0 °C 29.3in /  991.1hPa NE 2.5mph /  4.0km/h 4.5mph /  7.2km/h 95% 0in /  0.0mm
06:38 25 °F /  -3.9 °C 23 °F /  -5.0 °C 29.3in /  991.1hPa North 2.2mph /  3.5km/h 4.7mph /  7.6km/h 94% 0in /  0.0mm
06:43 25 °F /  -3.9 °C 23 °F /  -5.0 °C 29.3in /  991.1hPa NNE 3.1mph /  5.0km/h 4.7mph /  7.6km/h 94% 0in /  0.0mm
06:48 24.8 °F /  -4.0 °C 23 °F /  -5.0 °C 29.3in /  991.1hPa Calm   4mph /  6.4km/h 95% 0in /  0.0mm
06:53 24.8 °F /  -4.0 °C 23 °F /  -5.0 °C 29.3in /  991.1hPa Calm   4mph /  6.4km/h 95% 0in /  0.0mm
06:58 24.8 °F /  -4.0 °C 23 °F /  -5.0 °C 29.3in /  991.1hPa NNE 2.7mph /  4.3km/h 3.4mph /  5.5km/h 95% 0in /  0.0mm
07:03 24.8 °F /  -4.0 °C 23 °F /  -5.0 °C 29.3in /  991.1hPa North 2.5mph /  4.0km/h 3.8mph /  6.1km/h 95% 0in /  0.0mm
07:09 24.8 °F /  -4.0 °C 23 °F /  -5.0 °C 29.3in /  991.1hPa NNE 2.7mph /  4.3km/h 3.8mph /  6.1km/h 95% 0in /  0.0mm
07:14 25 °F /  -3.9 °C 23 °F /  -5.0 °C 29.3in /  991.1hPa North 2.5mph /  4.0km/h 4mph /  6.4km/h 95% 0in /  0.0mm
07:19 25 °F /  -3.9 °C 23 °F /  -5.0 °C 29.3in /  991.1hPa NNE 3.8mph /  6.1km/h 4.3mph /  6.9km/h 95% 0in /  0.0mm
07:24 25 °F /  -3.9 °C 23 °F /  -5.0 °C 29.3in /  991.1hPa NE 2.7mph /  4.3km/h 4.7mph /  7.6km/h 95% 0in /  0.0mm
07:29 25 °F /  -3.9 °C 23 °F /  -5.0 °C 29.3in /  991.1hPa North 4mph /  6.4km/h 4.9mph /  7.9km/h 95% 0in /  0.0mm
07:34 25 °F /  -3.9 °C 23 °F /  -5.0 °C 29.3in /  991.1hPa NNE 2.9mph /  4.7km/h 4.9mph /  7.9km/h 95% 0in /  0.0mm
07:39 25 °F /  -3.9 °C 23 °F /  -5.0 °C 29.3in /  991.1hPa North 1.6mph /  2.6km/h 4.3mph /  6.9km/h 95% 0in /  0.0mm
07:44 24.8 °F /  -4.0 °C 23 °F /  -5.0 °C 29.3in /  991.1hPa NNE 2.2mph /  3.5km/h 4mph /  6.4km/h 96% 0in /  0.0mm
07:49 24.8 °F /  -4.0 °C 23 °F /  -5.0 °C 29.3in /  991.1hPa Calm   4mph /  6.4km/h 95% 0in /  0.0mm
07:54 24.8 °F /  -4.0 °C 23 °F /  -5.0 °C 29.3in /  991.1hPa North 3.4mph /  5.5km/h 3.8mph /  6.1km/h 95% 0in /  0.0mm
07:59 24.8 °F /  -4.0 °C 23 °F /  -5.0 °C 29.3in /  992.1hPa NNE 2.7mph /  4.3km/h 4.3mph /  6.9km/h 96% 0in /  0.0mm
08:04 24.8 °F /  -4.0 °C 23 °F /  -5.0 °C 29.3in /  992.1hPa Calm   4.3mph /  6.9km/h 96% 0in /  0.0mm
08:09 24.8 °F /  -4.0 °C 23 °F /  -5.0 °C 29.3in /  992.1hPa NE 2.7mph /  4.3km/h 3.6mph /  5.8km/h 96% 0in /  0.0mm
08:14 25 °F /  -3.9 °C 23 °F /  -5.0 °C 29.3in /  993.1hPa NNE 0.9mph /  1.4km/h 3.8mph /  6.1km/h 96% 0in /  0.0mm
08:19 25.2 °F /  -3.8 °C 23 °F /  -5.0 °C 29.3in /  993.1hPa NE 0.9mph /  1.4km/h 3.8mph /  6.1km/h 96% 0in /  0.0mm
08:24 25.5 °F /  -3.6 °C 23 °F /  -5.0 °C 29.3in /  993.1hPa North 0.9mph /  1.4km/h 4mph /  6.4km/h 96% 0in /  0.0mm
08:29 25.9 °F /  -3.4 °C 24.8 °F /  -4.0 °C 29.3in /  993.1hPa NNE 2.2mph /  3.5km/h 4.3mph /  6.9km/h 97% 0in /  0.0mm
08:34 26.4 °F /  -3.1 °C 24.8 °F /  -4.0 °C 29.3in /  993.1hPa Calm   4.3mph /  6.9km/h 97% 0in /  0.0mm
08:39 26.8 °F /  -2.9 °C 24.8 °F /  -4.0 °C 29.3in /  993.1hPa North 3.6mph /  5.8km/h 4.3mph /  6.9km/h 97% 0in /  0.0mm
08:44 27 °F /  -2.8 °C 24.8 °F /  -4.0 °C 29.3in /  993.1hPa North 3.4mph /  5.5km/h 5.4mph /  8.7km/h 97% 0in /  0.0mm
08:49 27.3 °F /  -2.6 °C 24.8 °F /  -4.0 °C 29.3in /  993.1hPa NE 3.1mph /  5.0km/h 5.4mph /  8.7km/h 97% 0in /  0.0mm
08:54 27.9 °F /  -2.3 °C 26.6 °F /  -3.0 °C 29.3in /  993.1hPa NE 4.3mph /  6.9km/h 4.3mph /  6.9km/h 97% 0in /  0.0mm
08:59 28 °F /  -2.2 °C 26.6 °F /  -3.0 °C 29.4in /  994.1hPa NE 2.9mph /  4.7km/h 5.4mph /  8.7km/h 98% 0in /  0.0mm
09:04 28.6 °F /  -1.9 °C 26.6 °F /  -3.0 °C 29.4in /  994.1hPa NE 2.9mph /  4.7km/h 5.4mph /  8.7km/h 97% 0in /  0.0mm
09:09 29.1 °F /  -1.6 °C 28.4 °F /  -2.0 °C 29.4in /  994.1hPa North 3.8mph /  6.1km/h 5.4mph /  8.7km/h 98% 0in /  0.0mm
09:14 29.7 °F /  -1.3 °C 28.4 °F /  -2.0 °C 29.3in /  993.1hPa North 3.8mph /  6.1km/h 5.4mph /  8.7km/h 98% 0in /  0.0mm
09:19 30 °F /  -1.1 °C 28.4 °F /  -2.0 °C 29.3in /  993.1hPa NE 2.9mph /  4.7km/h 5.4mph /  8.7km/h 98% 0in /  0.0mm
09:24 30.7 °F /  -0.7 °C 30.2 °F /  -1.0 °C 29.3in /  993.1hPa NNE 3.8mph /  6.1km/h 5.4mph /  8.7km/h 98% 0in /  0.0mm
09:29 31.3 °F /  -0.4 °C 30.2 °F /  -1.0 °C 29.3in /  993.1hPa ENE 1.6mph /  2.6km/h 5.4mph /  8.7km/h 98% 0in /  0.0mm
09:34 31.8 °F /  -0.1 °C 30.2 °F /  -1.0 °C 29.3in /  993.1hPa NE 3.1mph /  5.0km/h 6.3mph /  10.1km/h 98% 0in /  0.0mm
09:39 32.2 °F /  0.1 °C 32 °F /  0.0 °C 29.3in /  993.1hPa NE 5.4mph /  8.7km/h 6.3mph /  10.1km/h 98% 0in /  0.0mm
09:44 32.7 °F /  0.4 °C 33.8 °F /  1.0 °C 29.3in /  993.1hPa East 4mph /  6.4km/h 5.8mph /  9.3km/h 98% 0in /  0.0mm
09:49 33.1 °F /  0.6 °C 33.8 °F /  1.0 °C 29.3in /  993.1hPa ENE 5.8mph /  9.3km/h 6.5mph /  10.5km/h 98% 0in /  0.0mm
09:54 33.4 °F /  0.8 °C 33.8 °F /  1.0 °C 29.3in /  993.1hPa NE 4mph /  6.4km/h 6.5mph /  10.5km/h 98% 0in /  0.0mm
09:59 33.8 °F /  1.0 °C 33.8 °F /  1.0 °C 29.3in /  993.1hPa NE 7.2mph /  11.6km/h 7.2mph /  11.6km/h 98% 0in /  0.0mm
10:04 34.2 °F /  1.2 °C 33.8 °F /  1.0 °C 29.3in /  993.1hPa NE 6.3mph /  10.1km/h 7.2mph /  11.6km/h 98% 0in /  0.0mm
10:09 34.5 °F /  1.4 °C 33.8 °F /  1.0 °C 29.3in /  993.1hPa ENE 5.8mph /  9.3km/h 7.2mph /  11.6km/h 98% 0in /  0.0mm
10:15 34.9 °F /  1.6 °C 33.8 °F /  1.0 °C 29.3in /  993.1hPa NE 6.5mph /  10.5km/h 7.2mph /  11.6km/h 97% 0in /  0.0mm
10:20 35.2 °F /  1.8 °C 33.8 °F /  1.0 °C 29.3in /  993.1hPa NE 5.6mph /  9.0km/h 7.2mph /  11.6km/h 96% 0in /  0.0mm
10:25 35.6 °F /  2.0 °C 35.6 °F /  2.0 °C 29.3in /  993.1hPa ENE 4.7mph /  7.6km/h 6.9mph /  11.1km/h 95% 0in /  0.0mm
10:30 36.3 °F /  2.4 °C 35.6 °F /  2.0 °C 29.3in /  993.1hPa ENE 4.7mph /  7.6km/h 6.5mph /  10.5km/h 95% 0in /  0.0mm
10:35 37 °F /  2.8 °C 35.6 °F /  2.0 °C 29.3in /  993.1hPa East 3.4mph /  5.5km/h 6mph /  9.7km/h 94% 0in /  0.0mm
10:40 37.8 °F /  3.2 °C 37.4 °F /  3.0 °C 29.3in /  993.1hPa ENE 4mph /  6.4km/h 6.5mph /  10.5km/h 93% 0in /  0.0mm
10:45 38.1 °F /  3.4 °C 35.6 °F /  2.0 °C 29.3in /  993.1hPa East 4.3mph /  6.9km/h 7.2mph /  11.6km/h 91% 0in /  0.0mm
10:50 38.7 °F /  3.7 °C 35.6 °F /  2.0 °C 29.3in /  993.1hPa ENE 4.3mph /  6.9km/h 7.2mph /  11.6km/h 89% 0in /  0.0mm
10:55 39 °F /  3.9 °C 35.6 °F /  2.0 °C 29.3in /  993.1hPa NE 6.3mph /  10.1km/h 6.3mph /  10.1km/h 88% 0in /  0.0mm
11:01 39.4 °F /  4.1 °C 35.6 °F /  2.0 °C 29.3in /  993.1hPa East 5.8mph /  9.3km/h 6.3mph /  10.1km/h 86% 0in /  0.0mm
11:06 39.9 °F /  4.4 °C 35.6 °F /  2.0 °C 29.3in /  993.1hPa ENE 6.3mph /  10.1km/h 7.2mph /  11.6km/h 84% 0in /  0.0mm
11:11 40.5 °F /  4.7 °C 35.6 °F /  2.0 °C 29.3in /  993.1hPa East 4.9mph /  7.9km/h 7.2mph /  11.6km/h 83% 0in /  0.0mm
11:16 40.6 °F /  4.8 °C 35.6 °F /  2.0 °C 29.3in /  993.1hPa ENE 7.4mph /  11.9km/h 7.6mph /  12.2km/h 81% 0in /  0.0mm
11:21 41 °F /  5.0 °C 35.6 °F /  2.0 °C 29.3in /  993.1hPa East 3.4mph /  5.5km/h 8.1mph /  13.0km/h 79% 0in /  0.0mm
11:26 41.4 °F /  5.2 °C 35.6 °F /  2.0 °C 29.3in /  993.1hPa NE 6.3mph /  10.1km/h 8.1mph /  13.0km/h 78% 0in /  0.0mm
11:34 32 °F /  0.0 °C 35.6 °F /  2.0 °C 29.3in /  993.1hPa Calm     0% 0in /  0.0mm
11:39 42.4 °F /  5.8 °C 37.4 °F /  3.0 °C 29.3in /  993.1hPa East 2.2mph /  3.5km/h 6mph /  9.7km/h 78% 0in /  0.0mm
11:44 43 °F /  6.1 °C 35.6 °F /  2.0 °C 29.3in /  993.1hPa Calm   6.3mph /  10.1km/h 76% 0in /  0.0mm
11:50 43.3 °F /  6.3 °C 37.4 °F /  3.0 °C 29.3in /  993.1hPa ESE 1.1mph /  1.8km/h 6.3mph /  10.1km/h 76% 0in /  0.0mm
11:55 43.7 °F /  6.5 °C 37.4 °F /  3.0 °C 29.3in /  993.1hPa East 4mph /  6.4km/h 6.3mph /  10.1km/h 75% 0in /  0.0mm
12:00 43.9 °F /  6.6 °C 37.4 °F /  3.0 °C 29.3in /  993.1hPa NE 5.4mph /  8.7km/h 6.3mph /  10.1km/h 74% 0in /  0.0mm
12:05 44.1 °F /  6.7 °C 35.6 °F /  2.0 °C 29.3in /  993.1hPa ENE 7.2mph /  11.6km/h 7.2mph /  11.6km/h 73% 0in /  0.0mm
12:10 44.1 °F /  6.7 °C 35.6 °F /  2.0 °C 29.3in /  993.1hPa NE 6mph /  9.7km/h 8.1mph /  13.0km/h 72% 0in /  0.0mm
12:15 44.2 °F /  6.8 °C 35.6 °F /  2.0 °C 29.3in /  993.1hPa ENE 4.9mph /  7.9km/h 8.1mph /  13.0km/h 73% 0in /  0.0mm
12:20 44.8 °F /  7.1 °C 37.4 °F /  3.0 °C 29.3in /  993.1hPa Calm   6.5mph /  10.5km/h 73% 0in /  0.0mm
12:25 45.3 °F /  7.4 °C 37.4 °F /  3.0 °C 29.3in /  993.1hPa ENE 3.1mph /  5.0km/h 6.5mph /  10.5km/h 72% 0in /  0.0mm
12:30 45.9 °F /  7.7 °C 37.4 °F /  3.0 °C 29.3in /  993.1hPa East 4.9mph /  7.9km/h 6.5mph /  10.5km/h 71% 0in /  0.0mm
12:36 46.2 °F /  7.9 °C 37.4 °F /  3.0 °C 29.3in /  993.1hPa ENE 5.6mph /  9.0km/h 7.4mph /  11.9km/h 70% 0in /  0.0mm
12:41 46.6 °F /  8.1 °C 37.4 °F /  3.0 °C 29.3in /  993.1hPa ESE 6.3mph /  10.1km/h 8.1mph /  13.0km/h 69% 0in /  0.0mm
12:46 47.1 °F /  8.4 °C 37.4 °F /  3.0 °C 29.3in /  993.1hPa East 7.4mph /  11.9km/h 8.1mph /  13.0km/h 67% 0in /  0.0mm
12:51 47.3 °F /  8.5 °C 37.4 °F /  3.0 °C 29.3in /  993.1hPa East 4.3mph /  6.9km/h 7.6mph /  12.2km/h 66% 0in /  0.0mm
12:56 47.7 °F /  8.7 °C 37.4 °F /  3.0 °C 29.3in /  993.1hPa ESE 1.1mph /  1.8km/h 7.6mph /  12.2km/h 64% 0in /  0.0mm
13:01 47.8 °F /  8.8 °C 37.4 °F /  3.0 °C 29.3in /  993.1hPa East 7.6mph /  12.2km/h 7.8mph /  12.6km/h 63% 0in /  0.0mm
13:06 47.8 °F /  8.8 °C 37.4 °F /  3.0 °C 29.3in /  993.1hPa ENE 6.3mph /  10.1km/h 7.8mph /  12.6km/h 63% 0in /  0.0mm
13:11 48.2 °F /  9.0 °C 35.6 °F /  2.0 °C 29.3in /  993.1hPa East 4.3mph /  6.9km/h 7.8mph /  12.6km/h 62% 0in /  0.0mm
13:16 48.6 °F /  9.2 °C 37.4 °F /  3.0 °C 29.3in /  993.1hPa SSE 3.8mph /  6.1km/h 6.7mph /  10.8km/h 62% 0in /  0.0mm
13:21 48.7 °F /  9.3 °C 35.6 °F /  2.0 °C 29.3in /  993.1hPa East 4.9mph /  7.9km/h 6.5mph /  10.5km/h 61% 0in /  0.0mm
13:26 48.9 °F /  9.4 °C 35.6 °F /  2.0 °C 29.3in /  993.1hPa ENE 3.4mph /  5.5km/h 7.8mph /  12.6km/h 60% 0in /  0.0mm
13:31 49.1 °F /  9.5 °C 37.4 °F /  3.0 °C 29.3in /  992.1hPa ESE 8.1mph /  13.0km/h 8.1mph /  13.0km/h 60% 0in /  0.0mm
13:36 49.1 °F /  9.5 °C 35.6 °F /  2.0 °C 29.3in /  992.1hPa East 5.8mph /  9.3km/h 8.5mph /  13.7km/h 58% 0in /  0.0mm
13:41 48.4 °F /  9.1 °C 33.8 °F /  1.0 °C 29.3in /  992.1hPa East 3.6mph /  5.8km/h 8.5mph /  13.7km/h 57% 0in /  0.0mm
13:46 48 °F /  8.9 °C 33.8 °F /  1.0 °C 29.3in /  992.1hPa ENE 6.7mph /  10.8km/h 7.8mph /  12.6km/h 58% 0in /  0.0mm
13:51 48.2 °F /  9.0 °C 35.6 °F /  2.0 °C 29.3in /  992.1hPa East 4.9mph /  7.9km/h 8.5mph /  13.7km/h 59% 0in /  0.0mm
13:56 48.6 °F /  9.2 °C 35.6 °F /  2.0 °C 29.3in /  992.1hPa Calm   8.5mph /  13.7km/h 59% 0in /  0.0mm
14:01 48.7 °F /  9.3 °C 35.6 °F /  2.0 °C 29.3in /  993.1hPa East 5.4mph /  8.7km/h 7.6mph /  12.2km/h 59% 0in /  0.0mm
14:07 48.7 °F /  9.3 °C 35.6 °F /  2.0 °C 29.3in /  993.1hPa East 6.5mph /  10.5km/h 7.8mph /  12.6km/h 59% 0in /  0.0mm
14:11 48.4 °F /  9.1 °C 35.6 °F /  2.0 °C 29.3in /  993.1hPa East 2mph /  3.2km/h 8.1mph /  13.0km/h 59% 0in /  0.0mm
14:16 48 °F /  8.9 °C 35.6 °F /  2.0 °C 29.3in /  992.1hPa East 6.3mph /  10.1km/h 8.1mph /  13.0km/h 59% 0in /  0.0mm
14:21 47.8 °F /  8.8 °C 35.6 °F /  2.0 °C 29.3in /  992.1hPa ENE 5.6mph /  9.0km/h 7.4mph /  11.9km/h 60% 0in /  0.0mm
14:27 47.8 °F /  8.8 °C 35.6 °F /  2.0 °C 29.3in /  992.1hPa ENE 4mph /  6.4km/h 7.2mph /  11.6km/h 60% 0in /  0.0mm
14:32 47.7 °F /  8.7 °C 35.6 °F /  2.0 °C 29.3in /  992.1hPa Calm   6.9mph /  11.1km/h 61% 0in /  0.0mm
14:36 47.3 °F /  8.5 °C 35.6 °F /  2.0 °C 29.3in /  992.1hPa East 3.8mph /  6.1km/h 6.5mph /  10.5km/h 61% 0in /  0.0mm
14:42 47.1 °F /  8.4 °C 35.6 °F /  2.0 °C 29.3in /  992.1hPa East 4.9mph /  7.9km/h 6.5mph /  10.5km/h 62% 0in /  0.0mm
14:47 47.1 °F /  8.4 °C 35.6 °F /  2.0 °C 29.3in /  992.1hPa NE 3.4mph /  5.5km/h 6.5mph /  10.5km/h 63% 0in /  0.0mm
14:52 47.1 °F /  8.4 °C 35.6 °F /  2.0 °C 29.3in /  992.1hPa East 5.6mph /  9.0km/h 6mph /  9.7km/h 63% 0in /  0.0mm
14:57 46.9 °F /  8.3 °C 35.6 °F /  2.0 °C 29.3in /  992.1hPa Calm   5.6mph /  9.0km/h 64% 0in /  0.0mm
15:02 46.8 °F /  8.2 °C 35.6 °F /  2.0 °C 29.3in /  992.1hPa East 4mph /  6.4km/h 5.6mph /  9.0km/h 64% 0in /  0.0mm
15:07 46.8 °F /  8.2 °C 35.6 °F /  2.0 °C 29.3in /  992.1hPa East 2.7mph /  4.3km/h 5.8mph /  9.3km/h 64% 0in /  0.0mm
15:12 46.6 °F /  8.1 °C 35.6 °F /  2.0 °C 29.3in /  992.1hPa East 3.4mph /  5.5km/h 5.8mph /  9.3km/h 65% 0in /  0.0mm
15:17 46.4 °F /  8.0 °C 35.6 °F /  2.0 °C 29.3in /  993.1hPa East 3.4mph /  5.5km/h 4.9mph /  7.9km/h 65% 0in /  0.0mm
15:22 46.2 °F /  7.9 °C 35.6 °F /  2.0 °C 29.3in /  993.1hPa Calm   4.3mph /  6.9km/h 66% 0in /  0.0mm
15:27 46.2 °F /  7.9 °C 35.6 °F /  2.0 °C 29.3in /  993.1hPa ENE 3.4mph /  5.5km/h 4.3mph /  6.9km/h 66% 0in /  0.0mm
15:32 46 °F /  7.8 °C 35.6 °F /  2.0 °C 29.3in /  992.1hPa ENE 2.5mph /  4.0km/h 4.7mph /  7.6km/h 66% 0in /  0.0mm
15:37 46 °F /  7.8 °C 35.6 °F /  2.0 °C 29.3in /  992.1hPa ENE 3.6mph /  5.8km/h 5.8mph /  9.3km/h 67% 0in /  0.0mm
15:42 45.9 °F /  7.7 °C 35.6 °F /  2.0 °C 29.3in /  992.1hPa NE 3.6mph /  5.8km/h 5.8mph /  9.3km/h 67% 0in /  0.0mm
15:47 45.7 °F /  7.6 °C 35.6 °F /  2.0 °C 29.3in /  993.1hPa NE 2.9mph /  4.7km/h 5.4mph /  8.7km/h 67% 0in /  0.0mm
15:52 45.5 °F /  7.5 °C 35.6 °F /  2.0 °C 29.3in /  993.1hPa NE 3.4mph /  5.5km/h 5.4mph /  8.7km/h 68% 0in /  0.0mm
15:57 45.5 °F /  7.5 °C 35.6 °F /  2.0 °C 29.3in /  993.1hPa NE 5.6mph /  9.0km/h 7.4mph /  11.9km/h 68% 0in /  0.0mm
16:02 45.3 °F /  7.4 °C 35.6 °F /  2.0 °C 29.3in /  992.1hPa NNE 3.6mph /  5.8km/h 7.4mph /  11.9km/h 68% 0in /  0.0mm
16:07 45.3 °F /  7.4 °C 35.6 °F /  2.0 °C 29.3in /  992.1hPa Calm   6.3mph /  10.1km/h 68% 0in /  0.0mm
16:12 45.3 °F /  7.4 °C 35.6 °F /  2.0 °C 29.3in /  992.1hPa ENE 3.6mph /  5.8km/h 6.3mph /  10.1km/h 68% 0in /  0.0mm
16:18 45.3 °F /  7.4 °C 35.6 °F /  2.0 °C 29.3in /  993.1hPa East 5.4mph /  8.7km/h 6mph /  9.7km/h 68% 0in /  0.0mm
16:23 45.1 °F /  7.3 °C 35.6 °F /  2.0 °C 29.3in /  993.1hPa East 4.3mph /  6.9km/h 7.2mph /  11.6km/h 68% 0in /  0.0mm
16:28 44.8 °F /  7.1 °C 35.6 °F /  2.0 °C 29.3in /  993.1hPa ENE 6.3mph /  10.1km/h 7.2mph /  11.6km/h 68% 0in /  0.0mm
16:33 44.6 °F /  7.0 °C 35.6 °F /  2.0 °C 29.3in /  993.1hPa East 2.9mph /  4.7km/h 6.3mph /  10.1km/h 68% 0in /  0.0mm
16:38 44.4 °F /  6.9 °C 35.6 °F /  2.0 °C 29.3in /  993.1hPa East 3.6mph /  5.8km/h 6.3mph /  10.1km/h 69% 0in /  0.0mm
16:43 44.2 °F /  6.8 °C 33.8 °F /  1.0 °C 29.3in /  993.1hPa ENE 3.8mph /  6.1km/h 5.8mph /  9.3km/h 69% 0in /  0.0mm
16:48 44.1 °F /  6.7 °C 35.6 °F /  2.0 °C 29.3in /  993.1hPa East 1.6mph /  2.6km/h 5.8mph /  9.3km/h 70% 0in /  0.0mm
16:53 43.9 °F /  6.6 °C 35.6 °F /  2.0 °C 29.3in /  993.1hPa East 3.4mph /  5.5km/h 4.9mph /  7.9km/h 70% 0in /  0.0mm
16:58 43.9 °F /  6.6 °C 35.6 °F /  2.0 °C 29.3in /  993.1hPa East 5.4mph /  8.7km/h 5.4mph /  8.7km/h 71% 0in /  0.0mm
17:03 43.5 °F /  6.4 °C 35.6 °F /  2.0 °C 29.3in /  993.1hPa NE 2mph /  3.2km/h 5.6mph /  9.0km/h 71% 0in /  0.0mm
17:08 43.3 °F /  6.3 °C 35.6 °F /  2.0 °C 29.3in /  993.1hPa Calm   5.6mph /  9.0km/h 72% 0in /  0.0mm
17:13 43.2 °F /  6.2 °C 35.6 °F /  2.0 °C 29.3in /  993.1hPa East 2.7mph /  4.3km/h 5.6mph /  9.0km/h 73% 0in /  0.0mm
18:19 32 °F /  0.0 °C 35.6 °F /  2.0 °C 0in /  0.0hPa Calm     0% 0in /  0.0mm
18:24 41.7 °F /  5.4 °C 35.6 °F /  2.0 °C 29.3in /  993.1hPa Calm   3.1mph /  5.0km/h 78% 0in /  0.0mm
18:29 41.5 °F /  5.3 °C 35.6 °F /  2.0 °C 29.3in /  993.1hPa Calm   3.1mph /  5.0km/h 79% 0in /  0.0mm
18:34 41.5 °F /  5.3 °C 35.6 °F /  2.0 °C 29.3in /  993.1hPa Calm   4.3mph /  6.9km/h 79% 0in /  0.0mm
18:39 41.7 °F /  5.4 °C 35.6 °F /  2.0 °C 29.3in /  993.1hPa SSE 3.1mph /  5.0km/h 4.3mph /  6.9km/h 79% 0in /  0.0mm
18:44 41.5 °F /  5.3 °C 35.6 °F /  2.0 °C 29.3in /  992.1hPa SSE 4.7mph /  7.6km/h 6.7mph /  10.8km/h 79% 0in /  0.0mm
18:49 41.4 °F /  5.2 °C 35.6 °F /  2.0 °C 29.3in /  992.1hPa SSE 7.2mph /  11.6km/h 7.2mph /  11.6km/h 78% 0in /  0.0mm
18:54 41.2 °F /  5.1 °C 35.6 °F /  2.0 °C 29.3in /  992.1hPa Calm   8.7mph /  14.0km/h 78% 0in /  0.0mm
18:59 41 °F /  5.0 °C 35.6 °F /  2.0 °C 29.3in /  992.1hPa Calm   8.7mph /  14.0km/h 78% 0in /  0.0mm
19:04 40.6 °F /  4.8 °C 33.8 °F /  1.0 °C 29.3in /  993.1hPa Calm   4.9mph /  7.9km/h 78% 0in /  0.0mm
19:09 40.6 °F /  4.8 °C 33.8 °F /  1.0 °C 29.3in /  993.1hPa Calm   5.8mph /  9.3km/h 78% 0in /  0.0mm
19:14 40.3 °F /  4.6 °C 33.8 °F /  1.0 °C 29.3in /  993.1hPa Calm   5.8mph /  9.3km/h 78% 0in /  0.0mm
19:19 40.1 °F /  4.5 °C 33.8 °F /  1.0 °C 29.3in /  993.1hPa SE 2.5mph /  4.0km/h 2.5mph /  4.0km/h 78% 0in /  0.0mm
19:24 39.9 °F /  4.4 °C 33.8 °F /  1.0 °C 29.3in /  993.1hPa SE 0.9mph /  1.4km/h 2.7mph /  4.3km/h 78% 0in /  0.0mm
19:29 39.7 °F /  4.3 °C 33.8 °F /  1.0 °C 29.3in /  993.1hPa SSE 5.8mph /  9.3km/h 5.8mph /  9.3km/h 78% 0in /  0.0mm
19:34 39.7 °F /  4.3 °C 33.8 °F /  1.0 °C 29.3in /  992.1hPa SE 2.7mph /  4.3km/h 5.8mph /  9.3km/h 79% 0in /  0.0mm
19:39 39.6 °F /  4.2 °C 33.8 °F /  1.0 °C 29.3in /  992.1hPa Calm   5.8mph /  9.3km/h 79% 0in /  0.0mm
19:44 39.4 °F /  4.1 °C 33.8 °F /  1.0 °C 29.3in /  993.1hPa SSE 2.5mph /  4.0km/h 5.8mph /  9.3km/h 79% 0in /  0.0mm
19:50 39.2 °F /  4.0 °C 33.8 °F /  1.0 °C 29.3in /  993.1hPa ESE 3.8mph /  6.1km/h 4.3mph /  6.9km/h 79% 0in /  0.0mm
19:55 39 °F /  3.9 °C 33.8 °F /  1.0 °C 29.3in /  993.1hPa East 2.5mph /  4.0km/h 4.3mph /  6.9km/h 79% 0in /  0.0mm
20:00 38.7 °F /  3.7 °C 33.8 °F /  1.0 °C 29.3in /  993.1hPa ESE 2.5mph /  4.0km/h 6.3mph /  10.1km/h 79% 0in /  0.0mm
20:05 38.3 °F /  3.5 °C 33.8 °F /  1.0 °C 29.3in /  993.1hPa Calm   6.3mph /  10.1km/h 80% 0in /  0.0mm
20:10 37.9 °F /  3.3 °C 33.8 °F /  1.0 °C 29.3in /  993.1hPa Calm   5.4mph /  8.7km/h 80% 0in /  0.0mm
20:15 37.6 °F /  3.1 °C 32 °F /  0.0 °C 29.3in /  993.1hPa Calm   3.1mph /  5.0km/h 80% 0in /  0.0mm
20:20 37.4 °F /  3.0 °C 32 °F /  0.0 °C 29.3in /  993.1hPa ESE 1.1mph /  1.8km/h 4mph /  6.4km/h 80% 0in /  0.0mm
20:25 37.4 °F /  3.0 °C 33.8 °F /  1.0 °C 29.3in /  993.1hPa SE 3.8mph /  6.1km/h 6.3mph /  10.1km/h 83% 0in /  0.0mm
20:30 37.6 °F /  3.1 °C 33.8 °F /  1.0 °C 29.3in /  993.1hPa SSE 6mph /  9.7km/h 6.7mph /  10.8km/h 85% 0in /  0.0mm
20:35 37.9 °F /  3.3 °C 33.8 °F /  1.0 °C 29.3in /  993.1hPa South 5.8mph /  9.3km/h 7.8mph /  12.6km/h 86% 0in /  0.0mm
20:40 37.9 °F /  3.3 °C 33.8 °F /  1.0 °C 29.3in /  993.1hPa SE 4.9mph /  7.9km/h 7.8mph /  12.6km/h 86% 0in /  0.0mm
20:45 38.1 °F /  3.4 °C 33.8 °F /  1.0 °C 29.3in /  993.1hPa Calm   6.5mph /  10.5km/h 86% 0in /  0.0mm
20:50 38.5 °F /  3.6 °C 35.6 °F /  2.0 °C 29.3in /  993.1hPa ESE 4mph /  6.4km/h 7.2mph /  11.6km/h 86% 0in /  0.0mm
20:55 38.5 °F /  3.6 °C 35.6 °F /  2.0 °C 29.3in /  993.1hPa SE 5.6mph /  9.0km/h 7.2mph /  11.6km/h 86% 0in /  0.0mm
21:00 38.7 °F /  3.7 °C 35.6 °F /  2.0 °C 29.3in /  993.1hPa Calm   7.6mph /  12.2km/h 86% 0in /  0.0mm
21:05 38.7 °F /  3.7 °C 35.6 °F /  2.0 °C 29.3in /  993.1hPa South 5.8mph /  9.3km/h 7.6mph /  12.2km/h 86% 0in /  0.0mm
21:10 38.8 °F /  3.8 °C 35.6 °F /  2.0 °C 29.3in /  993.1hPa SE 3.1mph /  5.0km/h 6.3mph /  10.1km/h 86% 0in /  0.0mm
21:15 38.8 °F /  3.8 °C 35.6 °F /  2.0 °C 29.3in /  993.1hPa SE 8.7mph /  14.0km/h 8.7mph /  14.0km/h 86% 0in /  0.0mm
21:20 38.8 °F /  3.8 °C 35.6 °F /  2.0 °C 29.3in /  993.1hPa SE 5.4mph /  8.7km/h 8.7mph /  14.0km/h 86% 0in /  0.0mm
21:26 38.8 °F /  3.8 °C 35.6 °F /  2.0 °C 29.3in /  993.1hPa SSE 4mph /  6.4km/h 8.1mph /  13.0km/h 86% 0in /  0.0mm
21:31 38.8 °F /  3.8 °C 35.6 °F /  2.0 °C 29.3in /  993.1hPa SSE 3.8mph /  6.1km/h 8.7mph /  14.0km/h 86% 0in /  0.0mm
21:36 38.8 °F /  3.8 °C 35.6 °F /  2.0 °C 29.3in /  993.1hPa SSE 5.6mph /  9.0km/h 8.7mph /  14.0km/h 85% 0in /  0.0mm
21:41 38.7 °F /  3.7 °C 35.6 °F /  2.0 °C 29.3in /  993.1hPa SE 6.5mph /  10.5km/h 8.7mph /  14.0km/h 85% 0in /  0.0mm
21:46 38.7 °F /  3.7 °C 35.6 °F /  2.0 °C 29.3in /  993.1hPa Calm   7.4mph /  11.9km/h 85% 0in /  0.0mm
21:51 38.7 °F /  3.7 °C 35.6 °F /  2.0 °C 29.3in /  993.1hPa Calm   7.4mph /  11.9km/h 85% 0in /  0.0mm
21:56 38.7 °F /  3.7 °C 35.6 °F /  2.0 °C 29.3in /  993.1hPa SSE 2.7mph /  4.3km/h 5.8mph /  9.3km/h 85% 0in /  0.0mm
22:01 38.7 °F /  3.7 °C 35.6 °F /  2.0 °C 29.3in /  993.1hPa Calm   5.8mph /  9.3km/h 85% 0in /  0.0mm
22:06 38.5 °F /  3.6 °C 35.6 °F /  2.0 °C 29.3in /  993.1hPa SE 6.3mph /  10.1km/h 6.5mph /  10.5km/h 85% 0in /  0.0mm
22:11 38.5 °F /  3.6 °C 35.6 °F /  2.0 °C 29.3in /  993.1hPa SE 4mph /  6.4km/h 6.5mph /  10.5km/h 85% 0in /  0.0mm
22:16 38.5 °F /  3.6 °C 35.6 °F /  2.0 °C 29.3in /  993.1hPa Calm   6.5mph /  10.5km/h 85% 0in /  0.0mm
22:21 38.5 °F /  3.6 °C 35.6 °F /  2.0 °C 29.3in /  993.1hPa Calm   7.2mph /  11.6km/h 85% 0in /  0.0mm
22:26 38.3 °F /  3.5 °C 35.6 °F /  2.0 °C 29.3in /  993.1hPa SE 3.1mph /  5.0km/h 7.2mph /  11.6km/h 85% 0in /  0.0mm
22:31 38.1 °F /  3.4 °C 33.8 °F /  1.0 °C 29.3in /  993.1hPa SE 4mph /  6.4km/h 5.4mph /  8.7km/h 85% 0in /  0.0mm
22:36 38.1 °F /  3.4 °C 33.8 °F /  1.0 °C 29.3in /  993.1hPa SE 2.9mph /  4.7km/h 5.8mph /  9.3km/h 85% 0in /  0.0mm
22:42 38.1 °F /  3.4 °C 33.8 °F /  1.0 °C 29.3in /  993.1hPa Calm   5.8mph /  9.3km/h 85% 0in /  0.0mm
22:47 37.9 °F /  3.3 °C 33.8 °F /  1.0 °C 29.3in /  993.1hPa SE 5.4mph /  8.7km/h 6mph /  9.7km/h 85% 0in /  0.0mm
22:52 37.9 °F /  3.3 °C 33.8 °F /  1.0 °C 29.3in /  993.1hPa Calm   6mph /  9.7km/h 85% 0in /  0.0mm
22:57 37.8 °F /  3.2 °C 33.8 °F /  1.0 °C 29.3in /  993.1hPa ESE 6.3mph /  10.1km/h 6.3mph /  10.1km/h 85% 0in /  0.0mm
23:02 37.6 °F /  3.1 °C 33.8 °F /  1.0 °C 29.3in /  993.1hPa SE 1.3mph /  2.1km/h 6.3mph /  10.1km/h 85% 0in /  0.0mm
23:19 32 °F /  0.0 °C 33.8 °F /  1.0 °C 0in /  0.0hPa SE 4.7mph /  7.6km/h 4.7mph /  7.6km/h 0% 0in /  0.0mm
23:24 36.7 °F /  2.6 °C 33.8 °F /  1.0 °C 29.4in /  994.1hPa SE 2mph /  3.2km/h 5.4mph /  8.7km/h 86% 0in /  0.0mm
23:29 36.7 °F /  2.6 °C 33.8 °F /  1.0 °C 29.4in /  994.1hPa ESE 5.4mph /  8.7km/h 7.2mph /  11.6km/h 86% 0in /  0.0mm
23:34 36.7 °F /  2.6 °C 33.8 °F /  1.0 °C 29.4in /  994.1hPa SSE 2.7mph /  4.3km/h 7.2mph /  11.6km/h 87% 0in /  0.0mm
23:39 36.7 °F /  2.6 °C 33.8 °F /  1.0 °C 29.4in /  994.1hPa Calm   6.3mph /  10.1km/h 88% 0in /  0.0mm
23:44 36.5 °F /  2.5 °C 33.8 °F /  1.0 °C 29.4in /  994.1hPa SE 2.7mph /  4.3km/h 6.5mph /  10.5km/h 88% 0in /  0.0mm
23:49 36.7 °F /  2.6 °C 33.8 °F /  1.0 °C 29.4in /  994.1hPa SSE 4.9mph /  7.9km/h 6.5mph /  10.5km/h 89% 0in /  0.0mm
23:54 36.7 °F /  2.6 °C 33.8 °F /  1.0 °C 29.4in /  994.1hPa Calm   6mph /  9.7km/h 89% 0in /  0.0mm
23:59 36.7 °F /  2.6 °C 33.8 °F /  1.0 °C 29.4in /  994.1hPa Calm   6.3mph /  10.1km/h 89% 0in /  0.0mm
Données Historique de Météo Turbie

Mise a jour : 18/06/2018 07:51:12
Généré par Cumulus 1.9.4 (1099)